sensor_id;sensor_type;location;lat;lon;timestamp;P1;durP1;ratioP1;P2;durP2;ratioP2
42726;SDS011;28372;56.832;60.658;2023-09-19T00:00:47;9.73;;;6.15;;
42726;SDS011;28372;56.832;60.658;2023-09-19T00:03:16;13.18;;;6.85;;
42726;SDS011;28372;56.832;60.658;2023-09-19T00:05:44;12.48;;;7.05;;
42726;SDS011;28372;56.832;60.658;2023-09-19T00:08:13;16.83;;;7.57;;
42726;SDS011;28372;56.832;60.658;2023-09-19T00:10:41;13.18;;;7.95;;
42726;SDS011;28372;56.832;60.658;2023-09-19T00:13:10;13.93;;;7.03;;
42726;SDS011;28372;56.832;60.658;2023-09-19T00:15:44;11.82;;;7.45;;
42726;SDS011;28372;56.832;60.658;2023-09-19T00:18:17;11.88;;;7.20;;
42726;SDS011;28372;56.832;60.658;2023-09-19T00:20:48;14.20;;;7.78;;
42726;SDS011;28372;56.832;60.658;2023-09-19T00:23:20;14.23;;;7.70;;
42726;SDS011;28372;56.832;60.658;2023-09-19T00:25:48;14.00;;;7.03;;
42726;SDS011;28372;56.832;60.658;2023-09-19T00:28:18;18.63;;;7.72;;
42726;SDS011;28372;56.832;60.658;2023-09-19T00:30:47;16.10;;;8.20;;
42726;SDS011;28372;56.832;60.658;2023-09-19T00:33:18;13.30;;;7.63;;
42726;SDS011;28372;56.832;60.658;2023-09-19T00:35:47;14.23;;;7.75;;
42726;SDS011;28372;56.832;60.658;2023-09-19T00:38:15;13.50;;;7.78;;
42726;SDS011;28372;56.832;60.658;2023-09-19T00:40:44;15.00;;;9.00;;
42726;SDS011;28372;56.832;60.658;2023-09-19T00:43:13;13.48;;;7.75;;
42726;SDS011;28372;56.832;60.658;2023-09-19T00:45:44;13.15;;;8.20;;
42726;SDS011;28372;56.832;60.658;2023-09-19T00:48:16;15.98;;;8.40;;
42726;SDS011;28372;56.832;60.658;2023-09-19T00:50:46;14.07;;;7.70;;
42726;SDS011;28372;56.832;60.658;2023-09-19T00:53:19;12.32;;;7.90;;
42726;SDS011;28372;56.832;60.658;2023-09-19T00:55:48;14.75;;;7.80;;
42726;SDS011;28372;56.832;60.658;2023-09-19T00:58:17;15.70;;;7.60;;
42726;SDS011;28372;56.832;60.658;2023-09-19T01:00:49;12.65;;;7.32;;
42726;SDS011;28372;56.832;60.658;2023-09-19T01:03:18;13.70;;;8.48;;
42726;SDS011;28372;56.832;60.658;2023-09-19T01:05:46;21.88;;;9.55;;
42726;SDS011;28372;56.832;60.658;2023-09-19T01:08:14;12.98;;;8.85;;
42726;SDS011;28372;56.832;60.658;2023-09-19T01:10:51;15.63;;;8.68;;
42726;SDS011;28372;56.832;60.658;2023-09-19T01:13:34;13.43;;;7.78;;
42726;SDS011;28372;56.832;60.658;2023-09-19T01:19:24;16.38;;;8.55;;
42726;SDS011;28372;56.832;60.658;2023-09-19T01:30:11;14.45;;;8.68;;
42726;SDS011;28372;56.832;60.658;2023-09-19T01:32:42;16.20;;;7.70;;
42726;SDS011;28372;56.832;60.658;2023-09-19T01:35:10;17.42;;;7.95;;
42726;SDS011;28372;56.832;60.658;2023-09-19T01:37:40;14.35;;;7.63;;
42726;SDS011;28372;56.832;60.658;2023-09-19T01:40:16;14.73;;;7.22;;
42726;SDS011;28372;56.832;60.658;2023-09-19T01:47:51;18.40;;;8.00;;
42726;SDS011;28372;56.832;60.658;2023-09-19T01:53:22;21.38;;;9.00;;
42726;SDS011;28372;56.832;60.658;2023-09-19T01:55:55;18.90;;;9.00;;
42726;SDS011;28372;56.832;60.658;2023-09-19T02:01:01;14.63;;;8.07;;
42726;SDS011;28372;56.832;60.658;2023-09-19T02:03:31;13.82;;;7.50;;
42726;SDS011;28372;56.832;60.658;2023-09-19T02:06:01;12.32;;;7.32;;
42726;SDS011;28372;56.832;60.658;2023-09-19T02:08:30;17.15;;;7.10;;
42726;SDS011;28372;56.832;60.658;2023-09-19T02:11:01;11.10;;;6.80;;
42726;SDS011;28372;56.832;60.658;2023-09-19T02:13:29;10.65;;;6.63;;
42726;SDS011;28372;56.832;60.658;2023-09-19T02:15:59;15.35;;;7.32;;
42726;SDS011;28372;56.832;60.658;2023-09-19T02:18:27;15.45;;;6.82;;
42726;SDS011;28372;56.832;60.658;2023-09-19T02:20:56;15.27;;;8.10;;
42726;SDS011;28372;56.832;60.658;2023-09-19T02:23:26;14.00;;;6.05;;
42726;SDS011;28372;56.832;60.658;2023-09-19T02:25:53;12.20;;;5.40;;
42726;SDS011;28372;56.832;60.658;2023-09-19T02:28:21;11.40;;;5.55;;
42726;SDS011;28372;56.832;60.658;2023-09-19T02:30:50;8.90;;;5.30;;
42726;SDS011;28372;56.832;60.658;2023-09-19T02:33:18;11.10;;;5.15;;
42726;SDS011;28372;56.832;60.658;2023-09-19T02:35:46;11.95;;;5.22;;
42726;SDS011;28372;56.832;60.658;2023-09-19T02:38:14;9.88;;;5.70;;
42726;SDS011;28372;56.832;60.658;2023-09-19T02:40:53;11.07;;;5.60;;
42726;SDS011;28372;56.832;60.658;2023-09-19T02:43:22;9.60;;;5.05;;
42726;SDS011;28372;56.832;60.658;2023-09-19T02:45:50;10.30;;;5.20;;
42726;SDS011;28372;56.832;60.658;2023-09-19T02:48:20;9.93;;;5.38;;
42726;SDS011;28372;56.832;60.658;2023-09-19T02:50:51;10.80;;;4.95;;
42726;SDS011;28372;56.832;60.658;2023-09-19T02:53:19;10.85;;;4.90;;
42726;SDS011;28372;56.832;60.658;2023-09-19T02:55:47;11.30;;;4.70;;
42726;SDS011;28372;56.832;60.658;2023-09-19T02:58:15;9.55;;;4.93;;
42726;SDS011;28372;56.832;60.658;2023-09-19T03:00:43;9.25;;;4.30;;
42726;SDS011;28372;56.832;60.658;2023-09-19T03:03:15;9.75;;;4.35;;
42726;SDS011;28372;56.832;60.658;2023-09-19T03:05:43;7.65;;;4.30;;
42726;SDS011;28372;56.832;60.658;2023-09-19T03:08:18;9.95;;;4.40;;
42726;SDS011;28372;56.832;60.658;2023-09-19T03:10:47;10.30;;;4.30;;
42726;SDS011;28372;56.832;60.658;2023-09-19T03:13:16;12.02;;;4.68;;
42726;SDS011;28372;56.832;60.658;2023-09-19T03:15:44;12.18;;;4.22;;
42726;SDS011;28372;56.832;60.658;2023-09-19T03:18:18;8.90;;;4.13;;
42726;SDS011;28372;56.832;60.658;2023-09-19T03:20:52;6.82;;;4.70;;
42726;SDS011;28372;56.832;60.658;2023-09-19T03:23:23;9.15;;;4.38;;
42726;SDS011;28372;56.832;60.658;2023-09-19T03:25:51;8.98;;;4.25;;
42726;SDS011;28372;56.832;60.658;2023-09-19T03:28:23;9.38;;;4.30;;
42726;SDS011;28372;56.832;60.658;2023-09-19T03:31:02;8.68;;;4.35;;
42726;SDS011;28372;56.832;60.658;2023-09-19T03:33:35;8.65;;;4.38;;
42726;SDS011;28372;56.832;60.658;2023-09-19T03:36:04;8.75;;;4.30;;
42726;SDS011;28372;56.832;60.658;2023-09-19T03:38:33;9.93;;;4.30;;
42726;SDS011;28372;56.832;60.658;2023-09-19T03:41:04;12.75;;;4.90;;
42726;SDS011;28372;56.832;60.658;2023-09-19T03:43:34;7.50;;;4.65;;
42726;SDS011;28372;56.832;60.658;2023-09-19T03:46:03;9.45;;;4.30;;
42726;SDS011;28372;56.832;60.658;2023-09-19T03:48:33;7.10;;;4.30;;
42726;SDS011;28372;56.832;60.658;2023-09-19T03:51:02;8.95;;;4.10;;
42726;SDS011;28372;56.832;60.658;2023-09-19T03:53:30;12.60;;;4.53;;
42726;SDS011;28372;56.832;60.658;2023-09-19T03:55:57;11.98;;;4.90;;
42726;SDS011;28372;56.832;60.658;2023-09-19T03:58:30;10.95;;;4.30;;
42726;SDS011;28372;56.832;60.658;2023-09-19T04:00:57;9.60;;;4.15;;
42726;SDS011;28372;56.832;60.658;2023-09-19T04:03:27;8.63;;;4.30;;
42726;SDS011;28372;56.832;60.658;2023-09-19T04:06:02;8.73;;;4.03;;
42726;SDS011;28372;56.832;60.658;2023-09-19T04:08:31;8.20;;;4.47;;
42726;SDS011;28372;56.832;60.658;2023-09-19T04:10:59;9.32;;;4.20;;
42726;SDS011;28372;56.832;60.658;2023-09-19T04:13:27;11.40;;;4.32;;
42726;SDS011;28372;56.832;60.658;2023-09-19T04:15:55;10.35;;;4.00;;
42726;SDS011;28372;56.832;60.658;2023-09-19T04:18:23;8.40;;;3.70;;
42726;SDS011;28372;56.832;60.658;2023-09-19T04:20:52;7.53;;;3.60;;
42726;SDS011;28372;56.832;60.658;2023-09-19T04:23:20;9.43;;;3.65;;
42726;SDS011;28372;56.832;60.658;2023-09-19T04:25:48;8.75;;;4.13;;
42726;SDS011;28372;56.832;60.658;2023-09-19T04:28:16;9.88;;;3.40;;
42726;SDS011;28372;56.832;60.658;2023-09-19T04:30:44;6.10;;;2.75;;
42726;SDS011;28372;56.832;60.658;2023-09-19T04:33:11;9.45;;;3.20;;
42726;SDS011;28372;56.832;60.658;2023-09-19T04:35:41;9.55;;;3.25;;
42726;SDS011;28372;56.832;60.658;2023-09-19T04:38:10;6.57;;;3.20;;
42726;SDS011;28372;56.832;60.658;2023-09-19T04:40:39;7.97;;;3.00;;
42726;SDS011;28372;56.832;60.658;2023-09-19T04:43:07;8.73;;;3.33;;
42726;SDS011;28372;56.832;60.658;2023-09-19T04:45:34;6.82;;;3.13;;
42726;SDS011;28372;56.832;60.658;2023-09-19T04:48:02;6.78;;;2.97;;
42726;SDS011;28372;56.832;60.658;2023-09-19T04:50:30;8.98;;;2.80;;
42726;SDS011;28372;56.832;60.658;2023-09-19T04:52:58;6.32;;;2.80;;
42726;SDS011;28372;56.832;60.658;2023-09-19T04:55:26;8.00;;;2.67;;
42726;SDS011;28372;56.832;60.658;2023-09-19T04:57:54;8.65;;;2.72;;
42726;SDS011;28372;56.832;60.658;2023-09-19T05:00:22;7.13;;;2.95;;
42726;SDS011;28372;56.832;60.658;2023-09-19T05:02:52;6.50;;;2.70;;
42726;SDS011;28372;56.832;60.658;2023-09-19T05:05:22;8.35;;;2.97;;
42726;SDS011;28372;56.832;60.658;2023-09-19T05:07:51;7.30;;;3.00;;
42726;SDS011;28372;56.832;60.658;2023-09-19T05:10:20;10.13;;;2.92;;
42726;SDS011;28372;56.832;60.658;2023-09-19T05:12:49;10.75;;;3.10;;
42726;SDS011;28372;56.832;60.658;2023-09-19T05:15:20;7.05;;;2.50;;
42726;SDS011;28372;56.832;60.658;2023-09-19T05:17:50;14.32;;;3.00;;
42726;SDS011;28372;56.832;60.658;2023-09-19T05:20:22;6.35;;;2.83;;
42726;SDS011;28372;56.832;60.658;2023-09-19T05:23:05;5.10;;;2.40;;
42726;SDS011;28372;56.832;60.658;2023-09-19T05:25:40;6.85;;;2.50;;
42726;SDS011;28372;56.832;60.658;2023-09-19T05:28:09;6.25;;;2.35;;
42726;SDS011;28372;56.832;60.658;2023-09-19T05:30:39;8.57;;;2.40;;
42726;SDS011;28372;56.832;60.658;2023-09-19T05:33:07;5.88;;;2.40;;
42726;SDS011;28372;56.832;60.658;2023-09-19T05:35:35;10.68;;;2.50;;
42726;SDS011;28372;56.832;60.658;2023-09-19T05:38:09;8.38;;;2.47;;
42726;SDS011;28372;56.832;60.658;2023-09-19T05:40:37;7.88;;;2.58;;
42726;SDS011;28372;56.832;60.658;2023-09-19T05:43:06;6.70;;;2.30;;
42726;SDS011;28372;56.832;60.658;2023-09-19T05:45:34;6.57;;;2.45;;
42726;SDS011;28372;56.832;60.658;2023-09-19T05:48:09;6.35;;;2.67;;
42726;SDS011;28372;56.832;60.658;2023-09-19T05:50:40;4.65;;;2.70;;
42726;SDS011;28372;56.832;60.658;2023-09-19T05:53:08;5.68;;;2.50;;
42726;SDS011;28372;56.832;60.658;2023-09-19T05:55:40;6.30;;;3.20;;
42726;SDS011;28372;56.832;60.658;2023-09-19T05:58:08;5.15;;;2.97;;
42726;SDS011;28372;56.832;60.658;2023-09-19T06:00:37;5.60;;;2.75;;
42726;SDS011;28372;56.832;60.658;2023-09-19T06:03:06;9.02;;;3.20;;
42726;SDS011;28372;56.832;60.658;2023-09-19T06:05:33;6.47;;;3.03;;
42726;SDS011;28372;56.832;60.658;2023-09-19T06:08:01;6.80;;;2.85;;
42726;SDS011;28372;56.832;60.658;2023-09-19T06:10:35;6.93;;;2.60;;
42726;SDS011;28372;56.832;60.658;2023-09-19T06:13:03;8.88;;;3.10;;
42726;SDS011;28372;56.832;60.658;2023-09-19T06:15:37;5.63;;;3.10;;
42726;SDS011;28372;56.832;60.658;2023-09-19T06:18:21;8.57;;;3.17;;
42726;SDS011;28372;56.832;60.658;2023-09-19T06:20:53;9.20;;;3.20;;
42726;SDS011;28372;56.832;60.658;2023-09-19T06:23:21;9.98;;;3.13;;
42726;SDS011;28372;56.832;60.658;2023-09-19T06:25:49;9.95;;;2.88;;
42726;SDS011;28372;56.832;60.658;2023-09-19T06:28:17;7.05;;;3.50;;
42726;SDS011;28372;56.832;60.658;2023-09-19T06:30:51;7.93;;;3.13;;
42726;SDS011;28372;56.832;60.658;2023-09-19T06:33:18;7.63;;;3.15;;
42726;SDS011;28372;56.832;60.658;2023-09-19T06:35:48;6.50;;;3.53;;
42726;SDS011;28372;56.832;60.658;2023-09-19T06:38:16;10.07;;;3.72;;
42726;SDS011;28372;56.832;60.658;2023-09-19T06:40:46;10.38;;;3.20;;
42726;SDS011;28372;56.832;60.658;2023-09-19T06:43:14;11.40;;;3.58;;
42726;SDS011;28372;56.832;60.658;2023-09-19T06:45:41;8.20;;;3.45;;
42726;SDS011;28372;56.832;60.658;2023-09-19T06:48:09;10.65;;;3.47;;
42726;SDS011;28372;56.832;60.658;2023-09-19T06:50:37;6.53;;;3.17;;
42726;SDS011;28372;56.832;60.658;2023-09-19T06:53:05;6.97;;;3.50;;
42726;SDS011;28372;56.832;60.658;2023-09-19T06:55:33;8.90;;;3.50;;
42726;SDS011;28372;56.832;60.658;2023-09-19T06:58:01;8.73;;;3.35;;
42726;SDS011;28372;56.832;60.658;2023-09-19T07:00:29;7.32;;;3.30;;
42726;SDS011;28372;56.832;60.658;2023-09-19T07:03:03;7.55;;;3.30;;
42726;SDS011;28372;56.832;60.658;2023-09-19T07:05:35;6.78;;;3.08;;
42726;SDS011;28372;56.832;60.658;2023-09-19T07:08:07;10.10;;;3.40;;
42726;SDS011;28372;56.832;60.658;2023-09-19T07:10:36;11.68;;;3.13;;
42726;SDS011;28372;56.832;60.658;2023-09-19T07:13:04;5.63;;;2.70;;
42726;SDS011;28372;56.832;60.658;2023-09-19T07:15:38;7.85;;;3.00;;
42726;SDS011;28372;56.832;60.658;2023-09-19T07:18:14;6.65;;;3.00;;
42726;SDS011;28372;56.832;60.658;2023-09-19T07:20:44;5.30;;;2.40;;
42726;SDS011;28372;56.832;60.658;2023-09-19T07:23:21;9.82;;;2.50;;
42726;SDS011;28372;56.832;60.658;2023-09-19T07:25:50;4.93;;;2.60;;
42726;SDS011;28372;56.832;60.658;2023-09-19T07:28:17;6.03;;;2.50;;
42726;SDS011;28372;56.832;60.658;2023-09-19T07:30:45;5.65;;;2.55;;
42726;SDS011;28372;56.832;60.658;2023-09-19T07:33:13;4.90;;;2.50;;
42726;SDS011;28372;56.832;60.658;2023-09-19T07:35:44;6.10;;;2.60;;
42726;SDS011;28372;56.832;60.658;2023-09-19T07:38:13;5.38;;;2.33;;
42726;SDS011;28372;56.832;60.658;2023-09-19T07:40:41;5.05;;;2.80;;
42726;SDS011;28372;56.832;60.658;2023-09-19T07:43:09;4.03;;;2.60;;
42726;SDS011;28372;56.832;60.658;2023-09-19T07:45:37;5.55;;;2.60;;
42726;SDS011;28372;56.832;60.658;2023-09-19T07:48:04;5.15;;;2.83;;
42726;SDS011;28372;56.832;60.658;2023-09-19T07:50:34;7.10;;;2.97;;
42726;SDS011;28372;56.832;60.658;2023-09-19T07:53:04;8.43;;;2.85;;
42726;SDS011;28372;56.832;60.658;2023-09-19T07:55:32;7.22;;;3.00;;
42726;SDS011;28372;56.832;60.658;2023-09-19T07:58:01;6.72;;;3.17;;
42726;SDS011;28372;56.832;60.658;2023-09-19T08:00:31;7.97;;;3.50;;
42726;SDS011;28372;56.832;60.658;2023-09-19T08:03:02;7.40;;;2.85;;
42726;SDS011;28372;56.832;60.658;2023-09-19T08:05:43;7.70;;;2.90;;
42726;SDS011;28372;56.832;60.658;2023-09-19T08:08:13;5.90;;;3.03;;
42726;SDS011;28372;56.832;60.658;2023-09-19T08:10:43;8.30;;;3.10;;
42726;SDS011;28372;56.832;60.658;2023-09-19T08:13:14;6.38;;;2.97;;
42726;SDS011;28372;56.832;60.658;2023-09-19T08:15:43;7.00;;;2.80;;
42726;SDS011;28372;56.832;60.658;2023-09-19T08:18:15;8.33;;;3.30;;
42726;SDS011;28372;56.832;60.658;2023-09-19T08:20:48;7.20;;;3.05;;
42726;SDS011;28372;56.832;60.658;2023-09-19T08:23:18;7.07;;;2.88;;
42726;SDS011;28372;56.832;60.658;2023-09-19T08:25:48;7.53;;;2.30;;
42726;SDS011;28372;56.832;60.658;2023-09-19T08:28:16;5.90;;;2.10;;
42726;SDS011;28372;56.832;60.658;2023-09-19T08:30:51;5.28;;;2.08;;
42726;SDS011;28372;56.832;60.658;2023-09-19T08:33:20;7.95;;;2.17;;
42726;SDS011;28372;56.832;60.658;2023-09-19T08:35:48;6.30;;;2.10;;
42726;SDS011;28372;56.832;60.658;2023-09-19T08:38:15;4.57;;;2.03;;
42726;SDS011;28372;56.832;60.658;2023-09-19T08:40:44;7.03;;;2.05;;
42726;SDS011;28372;56.832;60.658;2023-09-19T08:43:11;2.70;;;1.80;;
42726;SDS011;28372;56.832;60.658;2023-09-19T08:45:39;4.80;;;1.63;;
42726;SDS011;28372;56.832;60.658;2023-09-19T08:48:16;4.13;;;1.80;;
42726;SDS011;28372;56.832;60.658;2023-09-19T08:54:08;3.73;;;1.93;;
42726;SDS011;28372;56.832;60.658;2023-09-19T08:56:49;5.82;;;1.80;;
42726;SDS011;28372;56.832;60.658;2023-09-19T08:59:18;5.72;;;2.00;;
42726;SDS011;28372;56.832;60.658;2023-09-19T09:01:51;5.60;;;2.15;;
42726;SDS011;28372;56.832;60.658;2023-09-19T09:04:21;4.82;;;1.95;;
42726;SDS011;28372;56.832;60.658;2023-09-19T09:06:49;3.58;;;1.80;;
42726;SDS011;28372;56.832;60.658;2023-09-19T09:09:22;5.28;;;1.70;;
42726;SDS011;28372;56.832;60.658;2023-09-19T09:11:51;4.00;;;1.88;;
42726;SDS011;28372;56.832;60.658;2023-09-19T09:14:20;4.47;;;1.83;;
42726;SDS011;28372;56.832;60.658;2023-09-19T09:16:48;3.78;;;2.10;;
42726;SDS011;28372;56.832;60.658;2023-09-19T09:19:16;4.97;;;1.88;;
42726;SDS011;28372;56.832;60.658;2023-09-19T09:21:52;7.38;;;2.25;;
42726;SDS011;28372;56.832;60.658;2023-09-19T09:24:26;3.88;;;1.90;;
42726;SDS011;28372;56.832;60.658;2023-09-19T09:27:02;4.35;;;2.00;;
42726;SDS011;28372;56.832;60.658;2023-09-19T09:29:40;4.13;;;2.05;;
42726;SDS011;28372;56.832;60.658;2023-09-19T09:34:52;3.13;;;2.00;;
42726;SDS011;28372;56.832;60.658;2023-09-19T09:37:25;5.85;;;2.40;;
42726;SDS011;28372;56.832;60.658;2023-09-19T09:39:56;4.22;;;2.13;;
42726;SDS011;28372;56.832;60.658;2023-09-19T09:42:29;4.85;;;2.22;;
42726;SDS011;28372;56.832;60.658;2023-09-19T09:48:05;3.50;;;2.00;;
42726;SDS011;28372;56.832;60.658;2023-09-19T09:50:48;5.97;;;2.03;;
42726;SDS011;28372;56.832;60.658;2023-09-19T09:53:24;5.50;;;2.38;;
42726;SDS011;28372;56.832;60.658;2023-09-19T09:55:57;5.00;;;2.22;;
42726;SDS011;28372;56.832;60.658;2023-09-19T09:58:34;4.15;;;2.13;;
42726;SDS011;28372;56.832;60.658;2023-09-19T10:01:07;5.30;;;2.35;;
42726;SDS011;28372;56.832;60.658;2023-09-19T10:03:43;5.63;;;2.10;;
42726;SDS011;28372;56.832;60.658;2023-09-19T10:06:14;4.10;;;2.25;;
42726;SDS011;28372;56.832;60.658;2023-09-19T10:09:02;4.55;;;2.00;;
42726;SDS011;28372;56.832;60.658;2023-09-19T10:11:44;3.42;;;2.33;;
42726;SDS011;28372;56.832;60.658;2023-09-19T10:14:17;3.88;;;1.83;;
42726;SDS011;28372;56.832;60.658;2023-09-19T10:16:47;4.88;;;2.13;;
42726;SDS011;28372;56.832;60.658;2023-09-19T10:19:37;3.88;;;1.98;;
42726;SDS011;28372;56.832;60.658;2023-09-19T10:22:05;2.25;;;1.50;;
42726;SDS011;28372;56.832;60.658;2023-09-19T10:24:35;2.90;;;1.50;;
42726;SDS011;28372;56.832;60.658;2023-09-19T10:27:18;2.53;;;1.30;;
42726;SDS011;28372;56.832;60.658;2023-09-19T10:29:49;3.38;;;1.48;;
42726;SDS011;28372;56.832;60.658;2023-09-19T10:32:18;3.35;;;1.38;;
42726;SDS011;28372;56.832;60.658;2023-09-19T10:34:48;3.15;;;1.67;;
42726;SDS011;28372;56.832;60.658;2023-09-19T10:37:17;4.50;;;1.10;;
42726;SDS011;28372;56.832;60.658;2023-09-19T10:39:47;3.70;;;1.10;;
42726;SDS011;28372;56.832;60.658;2023-09-19T10:42:18;5.78;;;1.35;;
42726;SDS011;28372;56.832;60.658;2023-09-19T10:44:48;2.22;;;1.00;;
42726;SDS011;28372;56.832;60.658;2023-09-19T10:47:20;3.65;;;1.20;;
42726;SDS011;28372;56.832;60.658;2023-09-19T10:49:51;2.30;;;1.30;;
42726;SDS011;28372;56.832;60.658;2023-09-19T10:52:22;2.40;;;1.30;;
42726;SDS011;28372;56.832;60.658;2023-09-19T10:54:52;3.90;;;1.27;;
42726;SDS011;28372;56.832;60.658;2023-09-19T10:57:24;3.13;;;1.10;;
42726;SDS011;28372;56.832;60.658;2023-09-19T11:00:04;3.28;;;1.15;;
42726;SDS011;28372;56.832;60.658;2023-09-19T11:05:39;3.58;;;1.05;;
42726;SDS011;28372;56.832;60.658;2023-09-19T11:08:08;4.47;;;1.40;;
42726;SDS011;28372;56.832;60.658;2023-09-19T11:10:44;2.28;;;1.00;;
42726;SDS011;28372;56.832;60.658;2023-09-19T11:13:28;2.08;;;1.35;;
42726;SDS011;28372;56.832;60.658;2023-09-19T11:26:57;4.05;;;1.83;;
42726;SDS011;28372;56.832;60.658;2023-09-19T11:29:38;5.53;;;2.60;;
42726;SDS011;28372;56.832;60.658;2023-09-19T11:32:06;2.80;;;1.55;;
42726;SDS011;28372;56.832;60.658;2023-09-19T11:42:44;4.43;;;1.60;;
42726;SDS011;28372;56.832;60.658;2023-09-19T11:48:18;2.83;;;1.30;;
42726;SDS011;28372;56.832;60.658;2023-09-19T11:50:47;6.13;;;1.30;;
42726;SDS011;28372;56.832;60.658;2023-09-19T11:53:20;4.18;;;1.55;;
42726;SDS011;28372;56.832;60.658;2023-09-19T11:55:50;5.82;;;1.42;;
42726;SDS011;28372;56.832;60.658;2023-09-19T11:58:20;3.67;;;1.48;;
42726;SDS011;28372;56.832;60.658;2023-09-19T12:00:53;3.50;;;1.20;;
42726;SDS011;28372;56.832;60.658;2023-09-19T12:03:27;3.28;;;1.33;;
42726;SDS011;28372;56.832;60.658;2023-09-19T12:05:58;4.93;;;1.50;;
42726;SDS011;28372;56.832;60.658;2023-09-19T12:08:26;4.20;;;1.15;;
42726;SDS011;28372;56.832;60.658;2023-09-19T12:10:55;4.15;;;1.40;;
42726;SDS011;28372;56.832;60.658;2023-09-19T12:13:23;5.88;;;1.80;;
42726;SDS011;28372;56.832;60.658;2023-09-19T12:15:51;5.40;;;2.03;;
42726;SDS011;28372;56.832;60.658;2023-09-19T12:18:53;3.72;;;1.40;;
42726;SDS011;28372;56.832;60.658;2023-09-19T12:21:24;3.22;;;1.30;;
42726;SDS011;28372;56.832;60.658;2023-09-19T12:24:21;2.13;;;1.13;;
42726;SDS011;28372;56.832;60.658;2023-09-19T12:26:47;3.92;;;1.10;;
42726;SDS011;28372;56.832;60.658;2023-09-19T12:29:21;3.67;;;1.45;;
42726;SDS011;28372;56.832;60.658;2023-09-19T12:34:29;3.58;;;1.02;;
42726;SDS011;28372;56.832;60.658;2023-09-19T12:37:14;4.53;;;1.30;;
42726;SDS011;28372;56.832;60.658;2023-09-19T12:39:50;3.03;;;1.52;;
42726;SDS011;28372;56.832;60.658;2023-09-19T12:42:24;5.75;;;1.38;;
42726;SDS011;28372;56.832;60.658;2023-09-19T12:44:59;2.50;;;1.20;;
42726;SDS011;28372;56.832;60.658;2023-09-19T12:47:30;2.63;;;0.90;;
42726;SDS011;28372;56.832;60.658;2023-09-19T12:50:11;2.83;;;1.40;;
42726;SDS011;28372;56.832;60.658;2023-09-19T12:52:46;3.63;;;1.00;;
42726;SDS011;28372;56.832;60.658;2023-09-19T12:55:23;5.70;;;2.03;;
42726;SDS011;28372;56.832;60.658;2023-09-19T12:58:35;3.53;;;1.55;;
42726;SDS011;28372;56.832;60.658;2023-09-19T13:00:46;5.07;;;1.73;;
42726;SDS011;28372;56.832;60.658;2023-09-19T13:03:18;3.30;;;1.10;;
42726;SDS011;28372;56.832;60.658;2023-09-19T13:05:54;2.50;;;1.10;;
42726;SDS011;28372;56.832;60.658;2023-09-19T13:08:27;4.80;;;1.05;;
42726;SDS011;28372;56.832;60.658;2023-09-19T13:10:59;2.72;;;1.00;;
42726;SDS011;28372;56.832;60.658;2023-09-19T13:13:48;3.28;;;1.00;;
42726;SDS011;28372;56.832;60.658;2023-09-19T13:19:50;4.25;;;1.90;;
42726;SDS011;28372;56.832;60.658;2023-09-19T13:22:39;5.38;;;1.67;;
42726;SDS011;28372;56.832;60.658;2023-09-19T13:25:21;3.75;;;1.60;;
42726;SDS011;28372;56.832;60.658;2023-09-19T13:27:53;4.88;;;1.38;;
42726;SDS011;28372;56.832;60.658;2023-09-19T13:30:24;3.47;;;1.40;;
42726;SDS011;28372;56.832;60.658;2023-09-19T13:33:03;2.55;;;1.30;;
42726;SDS011;28372;56.832;60.658;2023-09-19T13:35:38;5.10;;;1.10;;
42726;SDS011;28372;56.832;60.658;2023-09-19T13:38:09;7.07;;;1.20;;
42726;SDS011;28372;56.832;60.658;2023-09-19T13:40:39;4.57;;;1.20;;
42726;SDS011;28372;56.832;60.658;2023-09-19T13:43:09;2.50;;;0.90;;
42726;SDS011;28372;56.832;60.658;2023-09-19T13:45:38;3.58;;;0.90;;
42726;SDS011;28372;56.832;60.658;2023-09-19T13:48:09;5.55;;;1.10;;
42726;SDS011;28372;56.832;60.658;2023-09-19T13:50:40;3.38;;;0.82;;
42726;SDS011;28372;56.832;60.658;2023-09-19T13:53:09;3.83;;;1.00;;
42726;SDS011;28372;56.832;60.658;2023-09-19T13:55:37;2.92;;;1.00;;
42726;SDS011;28372;56.832;60.658;2023-09-19T13:58:05;3.72;;;0.80;;
42726;SDS011;28372;56.832;60.658;2023-09-19T14:00:34;3.17;;;1.00;;
42726;SDS011;28372;56.832;60.658;2023-09-19T14:03:01;6.40;;;1.10;;
42726;SDS011;28372;56.832;60.658;2023-09-19T14:05:31;2.72;;;1.35;;
42726;SDS011;28372;56.832;60.658;2023-09-19T14:08:00;6.22;;;1.60;;
42726;SDS011;28372;56.832;60.658;2023-09-19T14:10:28;3.53;;;1.63;;
42726;SDS011;28372;56.832;60.658;2023-09-19T14:12:59;4.93;;;1.20;;
42726;SDS011;28372;56.832;60.658;2023-09-19T14:15:27;3.95;;;1.50;;
42726;SDS011;28372;56.832;60.658;2023-09-19T14:17:59;4.32;;;1.10;;
42726;SDS011;28372;56.832;60.658;2023-09-19T14:20:28;4.53;;;1.00;;
42726;SDS011;28372;56.832;60.658;2023-09-19T14:22:57;3.75;;;1.02;;
42726;SDS011;28372;56.832;60.658;2023-09-19T14:25:29;4.93;;;1.00;;
42726;SDS011;28372;56.832;60.658;2023-09-19T14:27:57;2.25;;;0.95;;
42726;SDS011;28372;56.832;60.658;2023-09-19T14:30:25;5.53;;;1.90;;
42726;SDS011;28372;56.832;60.658;2023-09-19T14:32:53;5.18;;;2.00;;
42726;SDS011;28372;56.832;60.658;2023-09-19T14:35:21;5.18;;;2.40;;
42726;SDS011;28372;56.832;60.658;2023-09-19T14:37:50;2.88;;;1.10;;
42726;SDS011;28372;56.832;60.658;2023-09-19T14:40:18;2.75;;;1.10;;
42726;SDS011;28372;56.832;60.658;2023-09-19T14:42:47;5.95;;;1.40;;
42726;SDS011;28372;56.832;60.658;2023-09-19T14:45:18;5.28;;;1.15;;
42726;SDS011;28372;56.832;60.658;2023-09-19T14:47:46;3.83;;;1.17;;
42726;SDS011;28372;56.832;60.658;2023-09-19T14:50:14;2.50;;;0.82;;
42726;SDS011;28372;56.832;60.658;2023-09-19T14:52:42;3.72;;;1.02;;
42726;SDS011;28372;56.832;60.658;2023-09-19T14:55:11;3.13;;;1.10;;
42726;SDS011;28372;56.832;60.658;2023-09-19T14:57:42;5.00;;;1.15;;
42726;SDS011;28372;56.832;60.658;2023-09-19T15:00:12;3.45;;;1.10;;
42726;SDS011;28372;56.832;60.658;2023-09-19T15:02:41;4.00;;;1.48;;
42726;SDS011;28372;56.832;60.658;2023-09-19T15:05:09;5.18;;;1.38;;
42726;SDS011;28372;56.832;60.658;2023-09-19T15:07:38;6.22;;;1.70;;
42726;SDS011;28372;56.832;60.658;2023-09-19T15:10:07;4.43;;;2.00;;
42726;SDS011;28372;56.832;60.658;2023-09-19T15:12:37;7.40;;;1.80;;
42726;SDS011;28372;56.832;60.658;2023-09-19T15:15:07;6.05;;;2.10;;
42726;SDS011;28372;56.832;60.658;2023-09-19T15:17:36;5.40;;;1.85;;
42726;SDS011;28372;56.832;60.658;2023-09-19T15:20:04;6.28;;;1.85;;
42726;SDS011;28372;56.832;60.658;2023-09-19T15:22:36;4.00;;;1.83;;
42726;SDS011;28372;56.832;60.658;2023-09-19T15:25:04;5.82;;;1.65;;
42726;SDS011;28372;56.832;60.658;2023-09-19T15:27:33;4.47;;;1.70;;
42726;SDS011;28372;56.832;60.658;2023-09-19T15:30:00;3.13;;;1.30;;
42726;SDS011;28372;56.832;60.658;2023-09-19T15:32:31;4.72;;;1.30;;
42726;SDS011;28372;56.832;60.658;2023-09-19T15:34:59;4.03;;;1.60;;
42726;SDS011;28372;56.832;60.658;2023-09-19T15:37:30;3.60;;;1.13;;
42726;SDS011;28372;56.832;60.658;2023-09-19T15:39:57;3.67;;;1.30;;
42726;SDS011;28372;56.832;60.658;2023-09-19T15:42:28;2.67;;;0.85;;
42726;SDS011;28372;56.832;60.658;2023-09-19T15:44:57;6.13;;;1.60;;
42726;SDS011;28372;56.832;60.658;2023-09-19T15:47:24;3.42;;;1.23;;
42726;SDS011;28372;56.832;60.658;2023-09-19T15:49:53;4.03;;;1.25;;
42726;SDS011;28372;56.832;60.658;2023-09-19T15:52:21;2.55;;;1.00;;
42726;SDS011;28372;56.832;60.658;2023-09-19T15:54:53;3.55;;;1.58;;